Scott AFB/Midamerica Airport
KBLV : now visible

Airfield :











YOU CAN JOIN US ON...

 
LOGIN :

Register | Disclaimer

   EN    FR    IT 

 









Legend :    VFR   Marginal VFR   IFR   Intensive IFR   Very Intensive IFR
Visi :
Ceiling :
>= 8 km
>= 3000ft
5 to 8 km
1000 to 3000 ft
1500m to 5 km
500 to 1000 ft
800 to 1500m
200 to 500 ft
< 800m
< 200 ft
Symbols :   Thunderstorms  Fog  Heavy snow  Heavy precipitations  Wind > 20 kt







- Airport Elevation : 459 ft


KBLV - Scott AFB/Midamerica

CURRENT METAR :
  • 261548Z 35003KT 10SM FEW021 22/21 A3005 RMK AO2A RAE1456RAB09E46DZB46E48 SLP176 $

EXPIRED METARs :
  • 261523Z 34005KT 4SM -RA SCT018 23/22 A3005 RMK AO2A RAE1456RAB09 SLP175 $
  • 261509Z AUTO 36003KT 9SM -RA FEW017 23/21 A3004 RMK AO2 RAE1456RAB09 SLP172 $
  • 261456Z 00000KT 6SM -RA SCT017 23/21 A3003 RMK AO2A RAB10E39DZB39E43RAB43 TSB13E29 SLP169 P0032 60032 T02340211 53004 $
  • 261439Z 33003KT 10SM -RA SCT018 23/22 A3003 RMK AO2A RAB10 TSB13E29 SLP169 $
  • 261434Z 31003KT 7SM -RA BR BKN018 23/22 A3004 RMK AO2A RAB10 TSB13E29 SLP172 $
  • 261420Z 30005KT 1 7/8SM +TSRA BKN017 BKN041 24/21 A3004 RMK AO2A VIS 1 1/2V7 VIS 1 RWY14L RAB10 TSB13 CIG 017V041 BKN017 V SCT SLP172 $
  • 261410Z AUTO 28005KT 8SM -RA FEW011 FEW028 FEW041 25/21 A3004 RMK AO2 LTG DSNT W RAB10 SLP172 $
  • 261356Z AUTO 20003KT 10SM FEW042 26/21 A3003 RMK AO2 SLP168 T02590209 $

Expired Forecast.
KZKC FIR / North America



MET'MAP, your aeronautical weather chart ! - Copyright ORBIFLY December 2007 - Disclaimer

ORBIFLY MET'MAP TEAM :

Programming & Development : Alexandra Zaïnal
Concept & Development : Baudouin d'Aumeries
Co-Development & Prog : Marc-Olivier Méhu
Technical & hardware support : Manuel Goepfert

Contact : metmap@orbifly.com




SOURCES & CREDITS :

   NOAA       Earth
Advisory